Time;durP1;ratioP1;P1;durP2;ratioP2;P2;SDS_P1;SDS_P2;PMS_P1;PMS_P2;Temp;Humidity;BMP_temperature;BMP_pressure;BME280_temperature;BME280_humidity;BME280_pressure;Samples;Min_cycle;Max_cycle;Signal;HPM_P1;HPM_P2
2022/05/10 00:02:38;;;;;;;;;;;12.30;1.00;;;;;;5065228;28;19950;-84
2022/05/10 00:05:17;;;;;;;;;;;12.30;1.00;;;;;;5092092;28;20516;-84
2022/05/10 00:13:51;;;;;;;;;;;12.20;1.00;;;;;;5072944;28;19931;-77
2022/05/10 00:16:27;;;;;;;;;;;12.10;1.00;;;;;;5082590;28;19958;-77
2022/05/10 00:19:03;;;;;;;;;;;12.10;1.00;;;;;;5066895;28;19913;-77
2022/05/10 00:21:33;;;;;;;;;;;12.10;1.00;;;;;;5080596;28;19916;-77
2022/05/10 00:24:16;;;;;;;;;;;12.10;1.00;;;;;;5075145;28;19939;-77
2022/05/10 00:26:52;;;;;;;;;;;12.00;1.00;;;;;;5070054;28;20046;-77
2022/05/10 00:29:33;;;;;;;;;;;12.00;1.00;;;;;;5074530;28;19965;-84
2022/05/10 00:31:59;;;;;;;;;;;12.00;1.00;;;;;;5056616;28;19913;-85
2022/05/10 00:37:33;;;;;;;;;;;12.00;1.00;;;;;;5078210;28;19963;-85
2022/05/10 00:40:10;;;;;;;;;;;11.90;1.00;;;;;;5084619;28;19912;-84
2022/05/10 00:42:59;;;;;;;;;;;11.90;1.00;;;;;;5079793;28;19916;-84
2022/05/10 00:45:45;;;;;;;;;;;11.90;1.00;;;;;;4976382;28;20370;-84
2022/05/10 00:48:39;;;;;;;;;;;11.90;1.00;;;;;;4975012;28;19914;-85
2022/05/10 00:51:17;;;;;;;;;;;11.90;1.00;;;;;;4959179;28;19922;-84
2022/05/10 00:53:48;;;;;;;;;;;11.90;1.00;;;;;;4987022;28;19921;-84
2022/05/10 00:59:34;;;;;;;;;;;11.80;1.00;;;;;;4972592;28;20324;-77
2022/05/10 01:02:21;;;;;;;;;;;11.80;1.00;;;;;;4956436;28;20384;-76
2022/05/10 01:05:02;;;;;;;;;;;11.70;1.00;;;;;;4978821;28;19910;-77
2022/05/10 01:07:40;;;;;;;;;;;11.80;1.00;;;;;;4981498;28;20345;-77
2022/05/10 01:10:17;;;;;;;;;;;11.70;1.00;;;;;;4973433;28;19925;-77
2022/05/10 01:12:54;;;;;;;;;;;11.70;1.00;;;;;;4972924;28;19914;-77
2022/05/10 01:15:51;;;;;;;;;;;11.70;1.00;;;;;;4981415;28;19914;-85
2022/05/10 01:18:27;;;;;;;;;;;11.70;1.00;;;;;;4974568;28;19910;-85
2022/05/10 01:20:56;;;;;;;;;;;11.70;1.00;;;;;;4981855;28;19929;-85
2022/05/10 01:29:30;;;;;;;;;;;11.60;1.00;;;;;;5075164;28;19919;-78
2022/05/10 01:35:09;;;;;;;;;;;11.60;1.00;;;;;;5070104;28;19918;-77
2022/05/10 01:37:48;;;;;;;;;;;11.50;1.00;;;;;;5087648;28;19958;-78
2022/05/10 01:40:20;;;;;;;;;;;11.50;1.00;;;;;;5086029;28;19920;-77
2022/05/10 01:42:48;;;;;;;;;;;11.50;1.00;;;;;;5073784;28;19912;-77
2022/05/10 01:45:32;;;;;;;;;;;11.50;1.00;;;;;;5087739;28;19955;-77
2022/05/10 01:48:04;;;;;;;;;;;11.40;1.00;;;;;;5071969;28;19912;-77
2022/05/10 01:50:52;;;;;;;;;;;11.50;1.00;;;;;;5057100;28;19920;-77
2022/05/10 01:53:20;;;;;;;;;;;11.50;1.00;;;;;;5069466;28;20362;-77
2022/05/10 01:55:54;;;;;;;;;;;11.50;1.00;;;;;;5068636;28;20015;-78
2022/05/10 01:58:45;;;;;;;;;;;11.40;1.00;;;;;;5087386;28;19908;-76
2022/05/10 02:01:24;;;;;;;;;;;11.40;1.00;;;;;;5084659;28;19922;-85
2022/05/10 02:07:16;;;;;;;;;;;11.40;1.00;;;;;;5085617;28;19946;-85
2022/05/10 02:16:03;;;;;;;;;;;11.30;1.00;;;;;;5080827;28;19920;-85
2022/05/10 02:21:35;;;;;;;;;;;11.30;1.00;;;;;;5076951;28;19961;-85
2022/05/10 02:24:33;;;;;;;;;;;11.30;1.00;;;;;;5081250;28;19920;-85
2022/05/10 02:30:17;;;;;;;;;;;11.20;1.00;;;;;;5073050;28;19966;-85
2022/05/10 02:35:55;;;;;;;;;;;11.20;1.00;;;;;;5094116;28;19965;-85
2022/05/10 02:38:25;;;;;;;;;;;11.20;1.00;;;;;;5070144;28;19912;-85
2022/05/10 02:40:53;;;;;;;;;;;11.10;1.00;;;;;;5075995;28;20023;-85
2022/05/10 02:46:21;;;;;;;;;;;11.10;1.00;;;;;;5097550;28;19966;-85
2022/05/10 02:52:10;;;;;;;;;;;11.10;1.00;;;;;;5089573;28;19919;-85
2022/05/10 02:57:39;;;;;;;;;;;11.10;1.00;;;;;;5075279;28;19915;-85
2022/05/10 03:00:10;;;;;;;;;;;11.00;1.00;;;;;;5094875;28;19916;-85
2022/05/10 03:05:45;;;;;;;;;;;11.00;1.00;;;;;;5072683;28;20332;-85
2022/05/10 03:08:21;;;;;;;;;;;11.00;1.00;;;;;;5065206;28;19960;-85
2022/05/10 03:11:03;;;;;;;;;;;10.90;1.00;;;;;;5086382;28;20401;-85
2022/05/10 03:13:47;;;;;;;;;;;10.90;1.00;;;;;;5082232;28;19915;-85
2022/05/10 03:16:27;;;;;;;;;;;10.90;1.00;;;;;;5087551;28;19920;-85
2022/05/10 03:19:18;;;;;;;;;;;10.90;1.00;;;;;;5076261;28;19916;-85
2022/05/10 03:21:44;;;;;;;;;;;10.90;1.00;;;;;;5076045;28;19920;-85
2022/05/10 03:24:28;;;;;;;;;;;10.90;1.00;;;;;;5077192;28;19919;-85
2022/05/10 03:33:16;;;;;;;;;;;10.80;1.00;;;;;;5075600;28;20043;-85
2022/05/10 03:35:45;;;;;;;;;;;10.80;1.00;;;;;;5092009;28;19912;-85
2022/05/10 03:38:21;;;;;;;;;;;10.80;1.00;;;;;;5067521;28;20007;-85
2022/05/10 03:40:47;;;;;;;;;;;10.80;1.00;;;;;;5078210;28;19920;-85
2022/05/10 03:46:16;;;;;;;;;;;10.80;1.00;;;;;;5075531;28;19954;-77
2022/05/10 03:48:41;;;;;;;;;;;10.80;1.00;;;;;;5066279;28;19948;-76
2022/05/10 03:51:09;;;;;;;;;;;10.80;1.00;;;;;;5084135;28;19966;-77
2022/05/10 03:53:35;;;;;;;;;;;10.70;1.00;;;;;;5088904;28;19916;-76
2022/05/10 03:56:00;;;;;;;;;;;10.70;1.00;;;;;;5084043;28;20381;-77
2022/05/10 03:58:26;;;;;;;;;;;10.70;1.00;;;;;;5084401;28;19909;-77
2022/05/10 04:00:57;;;;;;;;;;;10.80;1.00;;;;;;5088221;28;19916;-77
2022/05/10 04:03:27;;;;;;;;;;;10.80;1.00;;;;;;5081979;28;19923;-76
2022/05/10 04:05:53;;;;;;;;;;;10.80;1.00;;;;;;5085660;28;20000;-77
2022/05/10 04:08:19;;;;;;;;;;;10.80;1.00;;;;;;5078188;28;20318;-76
2022/05/10 04:10:51;;;;;;;;;;;10.80;1.00;;;;;;5091694;28;20286;-76
2022/05/10 04:13:17;;;;;;;;;;;10.80;1.00;;;;;;5081340;28;19913;-76
2022/05/10 04:15:45;;;;;;;;;;;10.90;1.00;;;;;;5084509;28;20264;-77
2022/05/10 04:18:11;;;;;;;;;;;10.90;1.00;;;;;;5079400;28;19908;-77
2022/05/10 04:20:37;;;;;;;;;;;10.90;1.00;;;;;;5084034;28;19939;-76
2022/05/10 04:23:02;;;;;;;;;;;11.00;1.00;;;;;;5088027;28;20283;-78
2022/05/10 04:25:28;;;;;;;;;;;11.00;1.00;;;;;;5074734;28;19913;-76
2022/05/10 04:27:54;;;;;;;;;;;11.10;1.00;;;;;;5068111;28;19908;-76
2022/05/10 04:30:27;;;;;;;;;;;11.10;1.00;;;;;;5081514;28;19913;-79
2022/05/10 04:32:53;;;;;;;;;;;11.20;1.00;;;;;;5079072;28;19920;-76
2022/05/10 04:35:19;;;;;;;;;;;11.30;1.00;;;;;;5086030;28;19912;-77
2022/05/10 04:37:44;;;;;;;;;;;11.40;1.00;;;;;;5091536;28;19914;-76
2022/05/10 04:43:09;;;;;;;;;;;11.50;1.00;;;;;;5077805;28;19918;-77
2022/05/10 04:45:46;;;;;;;;;;;11.60;1.00;;;;;;5088729;28;20007;-77
2022/05/10 04:48:21;;;;;;;;;;;11.70;1.00;;;;;;5077300;28;19909;-77
2022/05/10 04:50:48;;;;;;;;;;;11.70;1.00;;;;;;5061643;28;20011;-77
2022/05/10 04:53:15;;;;;;;;;;;11.80;1.00;;;;;;5078185;28;19990;-77
2022/05/10 04:56:04;;;;;;;;;;;11.90;1.00;;;;;;5056139;28;19930;-77
2022/05/10 04:58:30;;;;;;;;;;;12.00;1.00;;;;;;5071164;28;19977;-77
2022/05/10 05:01:22;;;;;;;;;;;12.10;1.00;;;;;;5077537;28;20351;-78
2022/05/10 05:04:00;;;;;;;;;;;12.20;1.00;;;;;;5082397;28;19915;-76
2022/05/10 05:06:26;;;;;;;;;;;12.30;1.00;;;;;;5063972;28;19912;-77
2022/05/10 05:08:52;;;;;;;;;;;12.40;1.00;;;;;;5071820;28;20257;-76
2022/05/10 05:11:22;;;;;;;;;;;12.50;1.00;;;;;;5059643;28;20343;-77
2022/05/10 05:13:47;;;;;;;;;;;12.60;1.00;;;;;;5077687;28;20364;-70
2022/05/10 05:16:13;;;;;;;;;;;12.70;1.00;;;;;;5087319;28;19919;-70
2022/05/10 05:18:40;;;;;;;;;;;12.90;1.00;;;;;;5073511;28;19908;-69
2022/05/10 05:21:09;;;;;;;;;;;12.90;1.00;;;;;;5080001;28;19920;-70
2022/05/10 05:23:35;;;;;;;;;;;13.00;1.00;;;;;;5073051;28;19913;-69
2022/05/10 05:26:01;;;;;;;;;;;13.10;1.00;;;;;;5068598;28;20390;-69
2022/05/10 05:28:29;;;;;;;;;;;13.20;1.00;;;;;;5077576;28;19915;-69
2022/05/10 05:30:55;;;;;;;;;;;13.30;1.00;;;;;;5083792;28;19927;-69
2022/05/10 05:33:21;;;;;;;;;;;13.50;1.00;;;;;;5069701;28;19913;-69
2022/05/10 05:35:46;;;;;;;;;;;13.60;1.00;;;;;;5071601;28;19962;-69
2022/05/10 05:38:12;;;;;;;;;;;13.70;1.00;;;;;;5076475;28;19913;-79
2022/05/10 05:40:37;;;;;;;;;;;13.90;1.00;;;;;;5077675;28;19916;-78
2022/05/10 05:43:03;;;;;;;;;;;14.00;1.00;;;;;;5082832;28;19923;-75
2022/05/10 05:45:29;;;;;;;;;;;14.10;1.00;;;;;;5085007;28;19919;-75
2022/05/10 05:47:54;;;;;;;;;;;14.30;1.00;;;;;;5085913;28;20024;-75
2022/05/10 05:50:21;;;;;;;;;;;14.50;1.00;;;;;;5087474;28;19915;-75
2022/05/10 05:52:48;;;;;;;;;;;14.60;1.00;;;;;;5073847;28;19958;-75
2022/05/10 05:55:14;;;;;;;;;;;14.80;1.00;;;;;;5081528;28;20377;-75
2022/05/10 05:57:40;;;;;;;;;;;15.00;1.00;;;;;;5087490;28;20007;-75
2022/05/10 06:00:07;;;;;;;;;;;15.20;1.00;;;;;;5095258;28;20003;-75
2022/05/10 06:02:32;;;;;;;;;;;15.30;1.00;;;;;;5097034;28;20011;-75
2022/05/10 06:04:58;;;;;;;;;;;15.50;1.00;;;;;;5096663;28;20268;-75
2022/05/10 06:07:23;;;;;;;;;;;15.60;1.00;;;;;;5096416;28;20286;-75
2022/05/10 06:09:49;;;;;;;;;;;15.70;1.00;;;;;;5096565;28;19908;-75
2022/05/10 06:12:16;;;;;;;;;;;15.90;1.00;;;;;;5071349;28;20359;-75
2022/05/10 06:14:42;;;;;;;;;;;15.90;1.00;;;;;;5076517;28;20311;-75
2022/05/10 06:17:08;;;;;;;;;;;16.10;1.00;;;;;;5082402;28;19944;-86
2022/05/10 06:19:36;;;;;;;;;;;16.20;1.00;;;;;;5097138;28;19919;-86
2022/05/10 06:22:02;;;;;;;;;;;16.40;1.00;;;;;;5079109;28;19951;-86
2022/05/10 06:24:27;;;;;;;;;;;16.50;1.00;;;;;;5079930;28;19909;-86
2022/05/10 06:26:53;;;;;;;;;;;16.60;1.00;;;;;;5072340;28;19981;-86
2022/05/10 06:29:19;;;;;;;;;;;16.80;1.00;;;;;;5076806;28;19915;-87
2022/05/10 06:31:45;;;;;;;;;;;16.90;1.00;;;;;;5088640;28;19927;-86
2022/05/10 06:34:10;;;;;;;;;;;17.00;1.00;;;;;;5096756;28;19908;-87
2022/05/10 06:36:37;;;;;;;;;;;17.10;1.00;;;;;;5076337;28;19919;-86
2022/05/10 06:39:03;;;;;;;;;;;17.30;1.00;;;;;;5063489;28;19912;-87
2022/05/10 06:41:31;;;;;;;;;;;17.40;1.00;;;;;;5095192;28;20420;-86
2022/05/10 06:43:57;;;;;;;;;;;17.60;99.90;;;;;;5058704;28;19958;-87
2022/05/10 06:46:22;;;;;;;;;;;17.80;99.90;;;;;;5081929;28;19981;-84
2022/05/10 06:48:48;;;;;;;;;;;17.90;99.90;;;;;;5080605;28;20371;-74
2022/05/10 06:51:15;;;;;;;;;;;18.00;99.90;;;;;;5076405;28;20287;-74
2022/05/10 06:53:41;;;;;;;;;;;18.20;99.90;;;;;;5082599;28;20275;-74
2022/05/10 06:56:07;;;;;;;;;;;18.30;99.90;;;;;;5088681;28;19909;-77
2022/05/10 06:58:33;;;;;;;;;;;18.40;99.90;;;;;;5089148;28;19908;-74
2022/05/10 07:00:58;;;;;;;;;;;18.50;99.90;;;;;;5095503;28;19919;-73
2022/05/10 07:03:28;;;;;;;;;;;18.60;99.90;;;;;;5081033;28;19919;-73
2022/05/10 07:05:54;;;;;;;;;;;18.80;99.90;;;;;;5094738;28;19924;-73
2022/05/10 07:08:20;;;;;;;;;;;18.90;99.90;;;;;;5063276;28;20371;-74
2022/05/10 07:10:45;;;;;;;;;;;19.00;99.90;;;;;;5094740;28;19919;-74
2022/05/10 07:13:15;;;;;;;;;;;19.10;99.90;;;;;;5075720;28;19993;-73
2022/05/10 07:15:40;;;;;;;;;;;19.10;99.90;;;;;;5071526;28;19916;-73
2022/05/10 07:18:06;;;;;;;;;;;19.10;99.90;;;;;;5095406;28;19908;-73
2022/05/10 07:20:31;;;;;;;;;;;19.10;99.90;;;;;;5082633;28;20018;-73
2022/05/10 07:22:57;;;;;;;;;;;19.10;99.90;;;;;;5089480;28;19908;-73
2022/05/10 07:25:25;;;;;;;;;;;19.20;99.90;;;;;;5085099;28;20011;-73
2022/05/10 07:27:50;;;;;;;;;;;19.20;99.90;;;;;;5076001;28;20364;-74
2022/05/10 07:30:16;;;;;;;;;;;19.10;99.90;;;;;;5086131;28;19943;-73
2022/05/10 07:32:42;;;;;;;;;;;19.10;99.90;;;;;;5076358;28;19930;-73
2022/05/10 07:35:08;;;;;;;;;;;19.10;99.90;;;;;;5086653;28;20002;-73
2022/05/10 07:37:34;;;;;;;;;;;19.10;99.90;;;;;;5076120;28;19913;-73
2022/05/10 07:40:00;;;;;;;;;;;19.10;99.90;;;;;;5083630;28;19919;-73
2022/05/10 07:42:26;;;;;;;;;;;19.20;99.90;;;;;;5075011;28;19928;-84
2022/05/10 07:44:57;;;;;;;;;;;19.20;99.90;;;;;;5075475;28;20367;-85
2022/05/10 07:47:23;;;;;;;;;;;19.30;99.90;;;;;;5078657;28;19912;-78
2022/05/10 07:49:51;;;;;;;;;;;19.40;99.90;;;;;;5076173;28;19908;-77
2022/05/10 07:52:17;;;;;;;;;;;19.40;99.90;;;;;;5081265;28;19912;-78
2022/05/10 07:54:43;;;;;;;;;;;19.50;99.90;;;;;;5080835;28;20011;-77
2022/05/10 07:57:08;;;;;;;;;;;19.70;99.90;;;;;;5094572;28;19912;-77
2022/05/10 07:59:36;;;;;;;;;;;19.70;99.90;;;;;;5065026;28;19912;-78
2022/05/10 08:02:02;;;;;;;;;;;19.80;99.90;;;;;;5073875;28;19912;-78
2022/05/10 08:04:27;;;;;;;;;;;20.00;99.90;;;;;;5075365;28;19912;-85
2022/05/10 08:06:53;;;;;;;;;;;20.10;99.90;;;;;;5071099;28;20033;-85
2022/05/10 08:09:19;;;;;;;;;;;20.20;99.90;;;;;;5079521;28;19909;-85
2022/05/10 08:11:46;;;;;;;;;;;20.30;99.90;;;;;;5076523;28;19995;-85
2022/05/10 08:14:12;;;;;;;;;;;20.50;99.90;;;;;;5074996;28;19912;-85
2022/05/10 08:16:38;;;;;;;;;;;20.60;99.90;;;;;;5093742;28;19909;-85
2022/05/10 08:19:04;;;;;;;;;;;20.80;99.90;;;;;;5079897;28;19920;-85
2022/05/10 08:21:29;;;;;;;;;;;21.00;99.90;;;;;;5084516;28;19923;-85
2022/05/10 08:23:55;;;;;;;;;;;21.20;99.90;;;;;;5088547;28;19915;-85
2022/05/10 08:26:21;;;;;;;;;;;21.40;99.90;;;;;;5081082;28;20331;-84
2022/05/10 08:28:47;;;;;;;;;;;21.50;99.90;;;;;;5068927;28;19919;-85
2022/05/10 08:31:13;;;;;;;;;;;21.70;99.90;;;;;;5094051;28;19912;-85
2022/05/10 08:33:40;;;;;;;;;;;22.10;99.90;;;;;;5083330;28;19916;-85
2022/05/10 08:36:11;;;;;;;;;;;22.10;99.90;;;;;;5076724;28;19912;-84
2022/05/10 08:38:36;;;;;;;;;;;22.40;99.90;;;;;;5078926;28;19999;-85
2022/05/10 08:41:11;;;;;;;;;;;22.60;99.90;;;;;;5081299;28;20020;-85
2022/05/10 08:43:36;;;;;;;;;;;22.80;99.90;;;;;;5065897;28;19994;-83
2022/05/10 08:46:03;;;;;;;;;;;23.00;99.90;;;;;;5082762;28;19918;-84
2022/05/10 08:48:30;;;;;;;;;;;23.30;99.90;;;;;;5093766;28;19908;-83
2022/05/10 08:50:55;;;;;;;;;;;23.60;99.90;;;;;;5092901;28;20384;-83
2022/05/10 08:53:21;;;;;;;;;;;23.90;99.90;;;;;;5093218;28;19951;-83
2022/05/10 08:55:49;;;;;;;;;;;24.00;99.90;;;;;;5093365;28;19947;-83
2022/05/10 08:58:17;;;;;;;;;;;24.00;99.90;;;;;;5093724;28;19977;-83
2022/05/10 09:00:47;;;;;;;;;;;23.90;99.90;;;;;;5093344;28;20274;-83
2022/05/10 09:03:21;;;;;;;;;;;23.90;99.90;;;;;;5093704;28;19967;-82
2022/05/10 09:05:47;;;;;;;;;;;24.00;99.90;;;;;;5093401;28;19909;-83
2022/05/10 09:08:16;;;;;;;;;;;24.10;99.90;;;;;;5088595;28;20014;-83
2022/05/10 09:10:49;;;;;;;;;;;24.30;99.90;;;;;;5085189;28;19908;-83
2022/05/10 09:13:16;;;;;;;;;;;24.30;99.90;;;;;;5061860;28;20290;-83
2022/05/10 09:16:01;;;;;;;;;;;24.50;99.90;;;;;;5093350;28;19912;-83
2022/05/10 09:18:50;;;;;;;;;;;24.50;99.90;;;;;;5092792;28;19909;-83
2022/05/10 09:21:18;;;;;;;;;;;24.50;99.90;;;;;;4984168;28;19914;-83
2022/05/10 09:23:45;;;;;;;;;;;24.50;99.90;;;;;;4975283;28;19914;-83
2022/05/10 09:26:12;;;;;;;;;;;24.50;99.90;;;;;;4975258;28;19909;-83
2022/05/10 09:28:44;;;;;;;;;;;24.30;99.90;;;;;;4993173;28;19917;-83
2022/05/10 09:36:55;;;;;;;;;;;24.10;99.90;;;;;;4982064;28;19998;-83
2022/05/10 09:39:28;;;;;;;;;;;24.20;99.90;;;;;;4975935;28;19918;-83
2022/05/10 09:41:54;;;;;;;;;;;24.40;99.90;;;;;;4993198;28;20380;-84
2022/05/10 09:44:23;;;;;;;;;;;24.40;99.90;;;;;;4995265;28;19956;-83
2022/05/10 09:46:50;;;;;;;;;;;24.60;99.90;;;;;;4995172;28;19993;-83
2022/05/10 09:49:36;;;;;;;;;;;24.80;99.90;;;;;;4995753;28;19909;-80
2022/05/10 09:52:02;;;;;;;;;;;24.80;99.90;;;;;;4986784;28;19914;-79
2022/05/10 09:54:38;;;;;;;;;;;24.80;99.90;;;;;;4970708;28;19953;-79
2022/05/10 09:57:06;;;;;;;;;;;24.80;99.90;;;;;;4975789;28;19957;-79
2022/05/10 09:59:48;;;;;;;;;;;24.90;99.90;;;;;;5071662;28;19925;-80
2022/05/10 10:02:32;;;;;;;;;;;24.90;99.90;;;;;;5089201;28;19920;-80
2022/05/10 10:05:02;;;;;;;;;;;24.90;99.90;;;;;;5064583;28;19916;-79
2022/05/10 10:07:28;;;;;;;;;;;24.80;99.90;;;;;;5076483;28;20001;-80
2022/05/10 10:10:14;;;;;;;;;;;24.80;99.90;;;;;;5084541;28;20272;-80
2022/05/10 10:12:41;;;;;;;;;;;24.80;99.90;;;;;;5090276;28;19908;-80
2022/05/10 10:15:27;;;;;;;;;;;24.90;99.90;;;;;;5096550;28;19958;-79
2022/05/10 10:18:00;;;;;;;;;;;24.90;99.90;;;;;;4994728;28;19917;-80
2022/05/10 10:20:34;;;;;;;;;;;25.10;99.90;;;;;;4995089;28;20320;-84
2022/05/10 10:23:02;;;;;;;;;;;25.40;99.90;;;;;;4990783;28;19914;-84
2022/05/10 10:25:32;;;;;;;;;;;25.60;99.90;;;;;;4991391;28;19917;-84
2022/05/10 10:28:04;;;;;;;;;;;25.50;99.90;;;;;;4994989;28;19938;-85
2022/05/10 10:30:42;;;;;;;;;;;25.70;99.90;;;;;;4978370;28;19917;-85
2022/05/10 10:33:11;;;;;;;;;;;26.00;99.90;;;;;;4987444;28;19914;-85
2022/05/10 10:35:46;;;;;;;;;;;26.00;99.90;;;;;;4967243;28;20282;-85
2022/05/10 10:38:19;;;;;;;;;;;26.20;99.90;;;;;;4959001;28;19915;-86
2022/05/10 10:40:47;;;;;;;;;;;26.00;99.90;;;;;;4980738;28;20608;-85
2022/05/10 10:43:14;;;;;;;;;;;26.20;99.90;;;;;;4992259;28;19910;-74
2022/05/10 10:45:44;;;;;;;;;;;26.40;99.90;;;;;;4983240;28;20423;-86
2022/05/10 10:48:10;;;;;;;;;;;26.60;99.90;;;;;;4994095;28;19918;-72
2022/05/10 10:50:35;;;;;;;;;;;26.80;99.90;;;;;;4994334;28;20273;-72
2022/05/10 10:53:03;;;;;;;;;;;27.00;99.90;;;;;;4968289;28;20018;-72
2022/05/10 10:55:47;;;;;;;;;;;27.20;99.90;;;;;;5039260;28;19954;-72
2022/05/10 10:58:25;;;;;;;;;;;27.60;99.90;;;;;;5061466;28;19908;-72
2022/05/10 11:00:55;;;;;;;;;;;27.90;99.90;;;;;;5078608;28;19912;-72
2022/05/10 11:03:28;;;;;;;;;;;28.00;99.90;;;;;;5095513;28;19908;-71
2022/05/10 11:05:54;;;;;;;;;;;28.10;99.90;;;;;;5095813;28;19915;-71
2022/05/10 11:08:29;;;;;;;;;;;28.00;99.90;;;;;;5093956;28;19916;-73
2022/05/10 11:11:02;;;;;;;;;;;28.00;99.90;;;;;;5094389;28;19908;-76
2022/05/10 11:13:31;;;;;;;;;;;28.10;99.90;;;;;;5058776;28;19961;-73
2022/05/10 11:16:03;;;;;;;;;;;27.90;99.90;;;;;;5088157;28;19919;-72
2022/05/10 11:18:31;;;;;;;;;;;28.00;99.90;;;;;;5078334;28;19909;-73
2022/05/10 11:21:05;;;;;;;;;;;28.00;99.90;;;;;;5087179;28;19966;-87
2022/05/10 11:23:41;;;;;;;;;;;28.10;99.90;;;;;;5075445;28;20006;-83
2022/05/10 11:26:19;;;;;;;;;;;27.90;99.90;;;;;;5094888;28;19908;-72
2022/05/10 11:28:48;;;;;;;;;;;28.00;99.90;;;;;;5095547;28;19909;-73
2022/05/10 11:31:33;;;;;;;;;;;28.20;99.90;;;;;;5082189;28;19921;-85
2022/05/10 11:34:21;;;;;;;;;;;28.20;99.90;;;;;;5064711;28;19915;-86
2022/05/10 11:36:52;;;;;;;;;;;27.90;99.90;;;;;;5081907;28;19963;-78
2022/05/10 11:39:18;;;;;;;;;;;27.80;99.90;;;;;;5085244;28;19912;-71
2022/05/10 11:42:03;;;;;;;;;;;27.80;99.90;;;;;;5080930;28;19946;-70
2022/05/10 11:44:47;;;;;;;;;;;27.50;99.90;;;;;;5083450;28;19909;-71
2022/05/10 11:47:32;;;;;;;;;;;27.90;99.90;;;;;;5074314;28;19916;-71
2022/05/10 11:49:58;;;;;;;;;;;27.90;99.90;;;;;;5078597;28;20069;-71
2022/05/10 11:52:44;;;;;;;;;;;28.30;99.90;;;;;;5083028;28;19951;-75
2022/05/10 11:55:27;;;;;;;;;;;28.40;99.90;;;;;;5073806;28;19909;-75
2022/05/10 11:57:56;;;;;;;;;;;28.70;99.90;;;;;;5075103;28;19995;-75
2022/05/10 12:00:31;;;;;;;;;;;29.00;99.90;;;;;;5085654;28;19908;-75
2022/05/10 12:02:57;;;;;;;;;;;28.90;99.90;;;;;;5077003;28;19920;-75
2022/05/10 12:05:33;;;;;;;;;;;28.40;99.90;;;;;;5075175;28;19908;-75
2022/05/10 12:08:01;;;;;;;;;;;28.20;99.90;;;;;;5080537;28;20003;-71
2022/05/10 12:10:30;;;;;;;;;;;28.20;99.90;;;;;;5088246;28;19909;-76
2022/05/10 12:12:57;;;;;;;;;;;28.20;99.90;;;;;;5055907;28;19958;-75
2022/05/10 12:21:21;;;;;;;;;;;28.20;99.90;;;;;;5074549;28;20598;-79
2022/05/10 12:24:05;;;;;;;;;;;28.30;99.90;;;;;;5069848;28;20278;-82
2022/05/10 12:26:54;;;;;;;;;;;28.20;99.90;;;;;;5074884;28;19993;-82
2022/05/10 12:29:31;;;;;;;;;;;28.40;99.90;;;;;;5043674;28;20263;-82
2022/05/10 12:31:58;;;;;;;;;;;28.60;99.90;;;;;;5081107;28;19912;-78
2022/05/10 12:34:46;;;;;;;;;;;28.70;99.90;;;;;;5093748;28;19912;-80
2022/05/10 12:37:36;;;;;;;;;;;28.80;99.90;;;;;;5074923;28;19937;-86
2022/05/10 12:40:18;;;;;;;;;;;28.80;99.90;;;;;;5081953;28;19915;-87
2022/05/10 12:43:10;;;;;;;;;;;28.90;99.90;;;;;;5067450;28;19920;-86
2022/05/10 12:46:03;;;;;;;;;;;29.00;99.90;;;;;;5083487;28;19913;-86
2022/05/10 12:48:43;;;;;;;;;;;29.10;99.90;;;;;;5057106;28;19948;-87
2022/05/10 12:51:40;;;;;;;;;;;29.00;99.90;;;;;;5045089;28;19909;-87
2022/05/10 12:54:16;;;;;;;;;;;29.00;99.90;;;;;;5080446;28;20411;-76
2022/05/10 12:56:42;;;;;;;;;;;29.20;99.90;;;;;;5068195;28;19908;-77
2022/05/10 12:59:12;;;;;;;;;;;28.90;99.90;;;;;;5063190;28;20404;-77
2022/05/10 13:01:38;;;;;;;;;;;28.70;99.90;;;;;;5068923;28;19947;-76
2022/05/10 13:04:13;;;;;;;;;;;28.70;99.90;;;;;;5074932;28;19916;-76
2022/05/10 13:06:52;;;;;;;;;;;29.10;99.90;;;;;;5086001;28;19954;-77
2022/05/10 13:09:23;;;;;;;;;;;29.30;99.90;;;;;;5087727;28;19916;-77
2022/05/10 13:11:53;;;;;;;;;;;29.70;99.90;;;;;;5081683;28;19908;-74
2022/05/10 13:14:19;;;;;;;;;;;29.60;99.90;;;;;;5087550;28;19915;-77
2022/05/10 13:16:46;;;;;;;;;;;29.50;99.90;;;;;;5085671;28;19912;-72
2022/05/10 13:19:12;;;;;;;;;;;29.50;99.90;;;;;;5075853;28;19909;-73
2022/05/10 13:21:37;;;;;;;;;;;29.50;99.90;;;;;;5085462;28;19918;-79
2022/05/10 13:24:11;;;;;;;;;;;29.50;99.90;;;;;;5080672;28;19908;-77
2022/05/10 13:26:57;;;;;;;;;;;29.30;99.90;;;;;;5063996;28;19962;-76
2022/05/10 13:29:35;;;;;;;;;;;29.30;99.90;;;;;;5067278;28;20003;-76
2022/05/10 13:32:01;;;;;;;;;;;29.00;99.90;;;;;;5087605;28;19908;-79
2022/05/10 13:34:28;;;;;;;;;;;29.00;99.90;;;;;;5083892;28;19915;-76
2022/05/10 13:43:27;;;;;;;;;;;29.80;99.90;;;;;;5068116;28;20466;-86
2022/05/10 13:45:59;;;;;;;;;;;30.20;99.90;;;;;;5082858;28;19944;-73
2022/05/10 13:48:48;;;;;;;;;;;30.00;99.90;;;;;;5064774;28;19916;-73
2022/05/10 13:51:19;;;;;;;;;;;30.00;99.90;;;;;;5064531;28;20340;-73
2022/05/10 13:53:54;;;;;;;;;;;30.00;99.90;;;;;;5086929;28;20252;-74
2022/05/10 13:56:24;;;;;;;;;;;30.20;99.90;;;;;;5090656;28;19912;-74
2022/05/10 13:58:50;;;;;;;;;;;29.90;99.90;;;;;;5074662;28;19912;-74
2022/05/10 14:01:29;;;;;;;;;;;29.90;99.90;;;;;;5080390;28;20359;-74
2022/05/10 14:04:01;;;;;;;;;;;29.50;99.90;;;;;;5062844;28;20240;-74
2022/05/10 14:06:29;;;;;;;;;;;29.50;99.90;;;;;;5072337;28;19958;-74
2022/05/10 14:08:55;;;;;;;;;;;29.70;99.90;;;;;;5072568;28;19966;-73
2022/05/10 14:11:21;;;;;;;;;;;29.60;99.90;;;;;;5077836;28;19920;-73
2022/05/10 14:13:49;;;;;;;;;;;29.60;99.90;;;;;;5075070;28;19934;-73
2022/05/10 14:16:27;;;;;;;;;;;29.50;99.90;;;;;;5091098;28;19986;-73
2022/05/10 14:18:52;;;;;;;;;;;29.40;99.90;;;;;;5080761;28;20398;-73
2022/05/10 14:21:21;;;;;;;;;;;29.40;99.90;;;;;;5096133;28;19916;-73
2022/05/10 14:23:47;;;;;;;;;;;29.20;99.90;;;;;;5090801;28;19912;-78
2022/05/10 14:26:31;;;;;;;;;;;28.90;99.90;;;;;;5088128;28;19908;-77
2022/05/10 14:29:05;;;;;;;;;;;28.80;99.90;;;;;;5083676;28;19919;-75
2022/05/10 14:31:33;;;;;;;;;;;28.90;99.90;;;;;;5073444;28;19915;-76
2022/05/10 14:34:01;;;;;;;;;;;29.30;99.90;;;;;;5072544;28;20314;-76
2022/05/10 14:36:27;;;;;;;;;;;29.30;99.90;;;;;;5076388;28;19908;-75
2022/05/10 14:38:53;;;;;;;;;;;29.10;99.90;;;;;;5096145;28;20350;-87
2022/05/10 14:41:37;;;;;;;;;;;29.10;99.90;;;;;;5088357;28;19921;-86
2022/05/10 14:44:22;;;;;;;;;;;29.20;99.90;;;;;;5084835;28;19915;-86
2022/05/10 14:46:53;;;;;;;;;;;29.20;99.90;;;;;;5075051;28;20366;-86
2022/05/10 14:49:34;;;;;;;;;;;29.00;99.90;;;;;;5081327;28;20355;-86
2022/05/10 14:52:00;;;;;;;;;;;29.10;99.90;;;;;;5082312;28;19913;-86
2022/05/10 14:54:33;;;;;;;;;;;29.00;99.90;;;;;;5078463;28;20332;-76
2022/05/10 14:57:00;;;;;;;;;;;28.70;99.90;;;;;;5086400;28;19912;-76
2022/05/10 14:59:48;;;;;;;;;;;28.50;99.90;;;;;;5081944;28;19915;-76
2022/05/10 15:02:23;;;;;;;;;;;28.70;99.90;;;;;;5081243;28;20004;-76
2022/05/10 15:04:49;;;;;;;;;;;28.80;99.90;;;;;;5076839;28;19995;-76
2022/05/10 15:07:14;;;;;;;;;;;28.70;99.90;;;;;;5079879;28;19967;-76
2022/05/10 15:09:40;;;;;;;;;;;28.60;99.90;;;;;;5093798;28;19912;-76
2022/05/10 15:14:49;;;;;;;;;;;28.40;99.90;;;;;;5081369;28;19926;-76
2022/05/10 15:17:16;;;;;;;;;;;28.50;99.90;;;;;;5077652;28;19912;-77
2022/05/10 15:19:42;;;;;;;;;;;28.50;99.90;;;;;;5063881;28;19937;-76
2022/05/10 15:22:08;;;;;;;;;;;28.60;99.90;;;;;;5086557;28;19912;-76
2022/05/10 15:24:33;;;;;;;;;;;28.80;99.90;;;;;;5090015;28;19931;-76
2022/05/10 15:26:59;;;;;;;;;;;28.80;99.90;;;;;;5081438;28;20069;-76
2022/05/10 15:29:31;;;;;;;;;;;28.60;99.90;;;;;;5062953;28;19920;-77
2022/05/10 15:31:57;;;;;;;;;;;28.80;99.90;;;;;;5087069;28;20009;-77
2022/05/10 15:37:08;;;;;;;;;;;29.60;99.90;;;;;;5070510;28;20021;-76
2022/05/10 15:39:33;;;;;;;;;;;30.60;99.90;;;;;;5083964;28;19935;-82
2022/05/10 15:41:59;;;;;;;;;;;30.70;99.90;;;;;;5082008;28;20268;-87
2022/05/10 15:44:24;;;;;;;;;;;31.30;99.90;;;;;;5082959;28;19919;-87
2022/05/10 15:46:50;;;;;;;;;;;31.60;99.90;;;;;;5076950;28;19916;-84
2022/05/10 15:49:16;;;;;;;;;;;31.00;99.90;;;;;;5093854;28;19912;-81
2022/05/10 15:51:43;;;;;;;;;;;30.30;99.90;;;;;;5094491;28;19908;-82
2022/05/10 15:54:12;;;;;;;;;;;29.70;99.90;;;;;;5095079;28;19908;-87
2022/05/10 15:56:37;;;;;;;;;;;28.80;99.90;;;;;;5094984;28;19957;-88
2022/05/10 15:59:04;;;;;;;;;;;28.60;99.90;;;;;;5068696;28;19909;-87
2022/05/10 16:01:30;;;;;;;;;;;28.40;99.90;;;;;;5076694;28;20275;-87
2022/05/10 16:03:56;;;;;;;;;;;28.20;99.90;;;;;;5094889;28;19909;-87
2022/05/10 16:06:22;;;;;;;;;;;28.10;99.90;;;;;;5086514;28;19933;-87
2022/05/10 16:08:47;;;;;;;;;;;27.70;99.90;;;;;;5076926;28;19955;-87
2022/05/10 16:11:13;;;;;;;;;;;27.30;99.90;;;;;;5091741;28;20046;-86
2022/05/10 16:13:38;;;;;;;;;;;27.20;99.90;;;;;;5074506;28;19908;-86